Time;durP1;ratioP1;P1;durP2;ratioP2;P2;SDS_P1;SDS_P2;PMS_P1;PMS_P2;Temp;Humidity;BMP_temperature;BMP_pressure;BME280_temperature;BME280_humidity;BME280_pressure;Samples;Min_cycle;Max_cycle;Signal;HPM_P1;HPM_P2
2022/11/08 00:01:38;;;;;;;6.07;4.25;;;4.30;99.90;;;;;;5040663;28;20107;-81
2022/11/08 00:04:09;;;;;;;5.65;3.35;;;4.20;99.90;;;;;;5042166;28;20168;-81
2022/11/08 00:14:49;;;;;;;5.88;3.35;;;4.30;99.90;;;;;;5042312;28;20040;-81
2022/11/08 00:17:16;;;;;;;5.60;2.90;;;4.10;99.90;;;;;;5042241;28;20037;-81
2022/11/08 00:19:42;;;;;;;5.63;2.78;;;4.00;99.90;;;;;;5038767;28;20159;-81
2022/11/08 00:22:09;;;;;;;4.95;2.88;;;3.80;99.90;;;;;;5041421;28;20036;-81
2022/11/08 00:24:35;;;;;;;6.95;4.18;;;3.80;99.90;;;;;;5057803;28;20030;-81
2022/11/08 00:27:03;;;;;;;8.27;4.32;;;3.90;99.90;;;;;;5044004;28;20567;-81
2022/11/08 00:29:28;;;;;;;5.85;3.85;;;4.00;99.90;;;;;;5043591;28;20788;-81
2022/11/08 00:31:54;;;;;;;5.22;3.63;;;4.00;99.90;;;;;;5036809;28;20038;-81
2022/11/08 00:34:19;;;;;;;3.85;2.90;;;4.10;99.90;;;;;;5044673;28;20025;-81
2022/11/08 00:36:45;;;;;;;5.47;2.88;;;4.10;99.90;;;;;;5043036;28;20029;-81
2022/11/08 00:39:11;;;;;;;4.28;2.78;;;4.10;99.90;;;;;;5042291;28;20038;-81
2022/11/08 00:41:36;;;;;;;5.22;2.97;;;4.00;99.90;;;;;;5040485;28;20033;-81
2022/11/08 00:44:02;;;;;;;3.75;2.90;;;4.00;99.90;;;;;;5041549;28;20037;-80
2022/11/08 00:46:28;;;;;;;5.20;3.50;;;4.00;99.90;;;;;;5039370;28;20077;-81
2022/11/08 00:48:53;;;;;;;4.55;3.13;;;4.00;99.90;;;;;;5042364;28;20029;-81
2022/11/08 00:51:19;;;;;;;4.35;2.20;;;3.90;99.90;;;;;;5043566;28;20037;-81
2022/11/08 00:53:44;;;;;;;5.47;2.85;;;3.90;99.90;;;;;;5039896;28;20077;-81
2022/11/08 00:56:11;;;;;;;2.40;2.20;;;3.90;99.90;;;;;;5039883;28;20045;-82
2022/11/08 00:58:38;;;;;;;3.13;2.78;;;3.80;99.90;;;;;;5043817;28;20067;-84
2022/11/08 01:01:23;;;;;;;2.35;2.17;;;3.80;99.90;;;;;;5038459;28;20041;-82
2022/11/08 01:03:50;;;;;;;3.38;2.70;;;3.80;99.90;;;;;;5040437;28;20135;-85
2022/11/08 01:06:17;;;;;;;2.70;2.50;;;3.80;99.90;;;;;;5039184;28;20040;-84
2022/11/08 01:08:43;;;;;;;3.53;2.97;;;3.80;99.90;;;;;;5047805;28;20041;-81
2022/11/08 01:11:15;;;;;;;2.80;2.38;;;3.80;99.90;;;;;;5041596;28;20037;-81
2022/11/08 01:13:41;;;;;;;3.58;2.33;;;3.80;99.90;;;;;;5037379;28;20029;-81
2022/11/08 01:16:12;;;;;;;3.28;2.97;;;3.80;99.90;;;;;;5047427;28;20186;-81
2022/11/08 01:18:38;;;;;;;3.63;2.28;;;3.70;99.90;;;;;;5046048;28;20473;-81
2022/11/08 01:21:04;;;;;;;3.10;2.33;;;3.70;99.90;;;;;;5042130;28;20043;-81
2022/11/08 01:23:30;;;;;;;4.57;2.85;;;3.70;99.90;;;;;;5043500;28;20361;-80
2022/11/08 01:25:56;;;;;;;2.97;2.67;;;3.70;99.90;;;;;;5039599;28;20036;-81
2022/11/08 01:28:21;;;;;;;7.28;2.75;;;3.60;99.90;;;;;;5068878;28;20037;-81
2022/11/08 01:30:47;;;;;;;3.28;2.53;;;3.50;99.90;;;;;;5035198;28;20046;-81
2022/11/08 01:33:14;;;;;;;6.32;2.83;;;3.30;99.90;;;;;;5039447;28;20040;-81
2022/11/08 01:35:42;;;;;;;3.85;2.42;;;3.30;99.90;;;;;;5031057;28;20086;-81
2022/11/08 01:38:09;;;;;;;2.17;1.92;;;3.20;99.90;;;;;;5048103;28;20044;-81
2022/11/08 01:40:42;;;;;;;2.40;2.20;;;3.10;99.90;;;;;;5036277;28;20397;-80
2022/11/08 01:43:35;;;;;;;1.95;1.80;;;3.00;99.90;;;;;;5039872;28;20034;-81
2022/11/08 01:46:19;;;;;;;3.05;2.30;;;2.90;99.90;;;;;;5042312;28;20077;-81
2022/11/08 01:49:02;;;;;;;3.40;2.30;;;3.00;99.90;;;;;;5039265;28;20115;-81
2022/11/08 01:51:38;;;;;;;1.50;1.40;;;3.00;99.90;;;;;;5032590;28;20173;-81
2022/11/08 01:54:07;;;;;;;2.10;2.00;;;3.10;99.90;;;;;;5039384;28;20037;-81
2022/11/08 01:56:34;;;;;;;4.00;2.30;;;3.20;99.90;;;;;;5038207;28;20118;-81
2022/11/08 01:59:04;;;;;;;1.95;1.70;;;3.20;99.90;;;;;;5040059;28;20041;-81
2022/11/08 02:01:30;;;;;;;2.67;1.83;;;3.20;99.90;;;;;;5036291;28;20045;-83
2022/11/08 02:03:57;;;;;;;2.97;2.25;;;3.20;99.90;;;;;;5044200;28;20100;-83
2022/11/08 02:06:23;;;;;;;1.70;1.60;;;3.20;99.90;;;;;;5041569;28;20033;-84
2022/11/08 02:08:49;;;;;;;1.45;1.23;;;3.20;99.90;;;;;;5037221;28;20041;-83
2022/11/08 02:11:16;;;;;;;1.80;1.70;;;3.20;99.90;;;;;;5039224;28;20066;-83
2022/11/08 02:13:42;;;;;;;2.58;1.85;;;3.20;99.90;;;;;;5074546;28;20450;-83
2022/11/08 02:16:15;;;;;;;1.70;1.58;;;3.20;99.90;;;;;;5040792;28;20041;-82
2022/11/08 02:18:43;;;;;;;2.47;1.83;;;3.20;99.90;;;;;;5044972;28;20119;-83
2022/11/08 02:21:23;;;;;;;2.53;1.63;;;3.00;99.90;;;;;;5040371;28;20018;-83
2022/11/08 02:24:00;;;;;;;2.65;1.60;;;2.90;99.90;;;;;;5040492;28;20037;-83
2022/11/08 02:26:32;;;;;;;2.05;1.95;;;2.80;99.90;;;;;;5038879;28;20029;-83
2022/11/08 02:28:58;;;;;;;1.67;1.48;;;2.70;99.90;;;;;;5039375;28;20025;-83
2022/11/08 02:31:24;;;;;;;3.03;2.10;;;2.80;99.90;;;;;;5038934;28;20041;-83
2022/11/08 02:33:50;;;;;;;2.30;1.80;;;2.90;99.90;;;;;;5039381;28;20037;-83
2022/11/08 02:36:22;;;;;;;1.67;1.58;;;2.80;99.90;;;;;;5042210;28;20041;-83
2022/11/08 02:38:54;;;;;;;2.90;2.10;;;2.90;99.90;;;;;;5039937;28;20005;-83
2022/11/08 02:41:19;;;;;;;2.10;1.98;;;2.90;99.90;;;;;;5038614;28;20040;-83
2022/11/08 02:43:45;;;;;;;1.92;1.77;;;2.80;99.90;;;;;;5035364;28;20524;-83
2022/11/08 02:46:11;;;;;;;2.75;1.80;;;2.90;99.90;;;;;;5041050;28;20080;-83
2022/11/08 02:48:36;;;;;;;1.70;1.60;;;2.80;99.90;;;;;;5041269;28;20041;-83
2022/11/08 02:51:02;;;;;;;1.85;1.63;;;2.80;99.90;;;;;;5042555;28;20468;-83
2022/11/08 02:53:28;;;;;;;1.70;1.60;;;2.70;99.90;;;;;;5041451;28;20075;-83
2022/11/08 02:55:54;;;;;;;1.30;1.20;;;2.70;99.90;;;;;;5037397;28;20030;-83
2022/11/08 02:58:19;;;;;;;1.50;1.40;;;2.70;99.90;;;;;;5036618;28;20093;-84
2022/11/08 03:00:45;;;;;;;1.83;1.60;;;2.60;99.90;;;;;;5032723;28;20047;-83
2022/11/08 03:03:10;;;;;;;2.65;1.80;;;2.60;99.90;;;;;;5048432;28;20042;-83
2022/11/08 03:05:36;;;;;;;2.20;1.70;;;2.60;99.90;;;;;;5043856;28;20071;-83
2022/11/08 03:08:02;;;;;;;3.42;2.17;;;2.60;99.90;;;;;;5040579;28;20037;-83
2022/11/08 03:10:28;;;;;;;3.05;2.20;;;2.50;99.90;;;;;;5038838;28;20052;-83
2022/11/08 03:12:56;;;;;;;3.10;2.20;;;2.40;99.90;;;;;;5039528;28;20025;-83
2022/11/08 03:15:21;;;;;;;2.97;2.67;;;2.30;99.90;;;;;;5038588;28;20045;-84
2022/11/08 03:17:47;;;;;;;2.78;2.03;;;2.30;99.90;;;;;;5045671;28;20037;-83
2022/11/08 03:20:12;;;;;;;3.33;2.20;;;2.40;99.90;;;;;;5037894;28;20047;-83
2022/11/08 03:22:38;;;;;;;2.30;2.10;;;2.40;99.90;;;;;;5034328;28;20041;-84
2022/11/08 03:25:04;;;;;;;3.33;2.58;;;2.40;99.90;;;;;;5039034;28;20500;-83
2022/11/08 03:27:29;;;;;;;4.75;2.25;;;2.30;99.90;;;;;;5037353;28;20037;-83
2022/11/08 03:29:55;;;;;;;2.50;2.28;;;2.10;99.90;;;;;;5039569;28;20037;-83
2022/11/08 03:32:21;;;;;;;2.75;2.28;;;2.20;99.90;;;;;;5044218;28;20044;-83
2022/11/08 03:34:47;;;;;;;2.67;2.08;;;2.20;99.90;;;;;;5045531;28;20024;-83
2022/11/08 03:37:12;;;;;;;4.07;2.30;;;2.10;99.90;;;;;;5037939;28;20485;-83
2022/11/08 03:39:38;;;;;;;2.20;2.08;;;2.10;99.90;;;;;;5041883;28;20041;-83
2022/11/08 03:42:03;;;;;;;1.83;1.73;;;2.20;99.90;;;;;;5038804;28;20131;-83
2022/11/08 03:44:30;;;;;;;3.17;1.95;;;2.30;99.90;;;;;;5039118;28;20099;-83
2022/11/08 03:46:57;;;;;;;2.88;1.90;;;2.30;99.90;;;;;;5038354;28;20634;-83
2022/11/08 03:49:22;;;;;;;2.63;2.15;;;2.30;99.90;;;;;;5040629;28;20036;-83
2022/11/08 03:51:48;;;;;;;2.08;1.98;;;2.30;99.90;;;;;;5037654;28;20042;-83
2022/11/08 03:54:14;;;;;;;2.70;2.50;;;2.30;99.90;;;;;;5042884;28;20039;-83
2022/11/08 03:56:39;;;;;;;3.38;1.90;;;2.30;99.90;;;;;;5037589;28;20389;-83
2022/11/08 03:59:06;;;;;;;2.42;2.00;;;2.30;99.90;;;;;;5037492;28;20049;-83
2022/11/08 04:01:31;;;;;;;5.05;2.78;;;2.30;99.90;;;;;;5039488;28;20398;-83
2022/11/08 04:03:57;;;;;;;3.25;2.20;;;2.30;99.90;;;;;;5038538;28;20048;-84
2022/11/08 04:06:23;;;;;;;1.83;1.58;;;2.30;99.90;;;;;;5038487;28;20040;-83
2022/11/08 04:08:49;;;;;;;4.65;4.10;;;2.30;99.90;;;;;;5039443;28;20033;-84
2022/11/08 04:16:43;;;;;;;7.43;3.60;;;2.10;99.90;;;;;;5036908;28;20060;-83
2022/11/08 04:21:54;;;;;;;6.57;4.13;;;2.20;99.90;;;;;;5039455;28;20088;-83
2022/11/08 04:24:20;;;;;;;7.38;4.85;;;2.20;99.90;;;;;;5037392;28;20088;-83
2022/11/08 04:26:47;;;;;;;7.57;3.50;;;2.20;99.90;;;;;;5037061;28;20097;-83
2022/11/08 04:29:13;;;;;;;4.13;3.13;;;2.10;99.90;;;;;;5066573;28;20160;-84
2022/11/08 04:31:39;;;;;;;8.52;4.70;;;2.00;99.90;;;;;;5038146;28;20038;-83
2022/11/08 04:34:05;;;;;;;1.77;1.67;;;2.00;99.90;;;;;;5038694;28;20057;-83
2022/11/08 04:36:32;;;;;;;3.25;2.95;;;2.00;99.90;;;;;;5040148;28;20512;-83
2022/11/08 04:38:58;;;;;;;6.03;4.10;;;1.60;99.90;;;;;;5041053;28;20406;-83
2022/11/08 04:41:24;;;;;;;3.22;3.00;;;1.70;99.90;;;;;;5034724;28;20057;-83
2022/11/08 04:43:51;;;;;;;3.05;2.63;;;1.70;99.90;;;;;;5043426;28;20049;-83
2022/11/08 04:46:22;;;;;;;3.45;3.15;;;1.70;99.90;;;;;;5040995;28;20128;-83
2022/11/08 04:48:50;;;;;;;6.68;5.53;;;1.80;99.90;;;;;;5037896;28;20026;-83
2022/11/08 04:51:18;;;;;;;3.40;3.05;;;1.80;99.90;;;;;;5041461;28;20026;-83
2022/11/08 04:53:44;;;;;;;2.88;2.60;;;1.80;99.90;;;;;;5042196;28;20041;-83
2022/11/08 04:56:18;;;;;;;2.10;2.00;;;1.80;99.90;;;;;;5045009;28;20013;-83
2022/11/08 04:58:45;;;;;;;8.00;6.07;;;1.80;99.90;;;;;;5041101;28;20525;-83
2022/11/08 05:01:17;;;;;;;18.25;12.40;;;1.80;99.90;;;;;;5042903;28;20049;-83
2022/11/08 05:03:44;;;;;;;4.93;3.90;;;1.90;99.90;;;;;;5043686;28;20076;-83
2022/11/08 05:06:12;;;;;;;4.38;3.40;;;1.70;99.90;;;;;;5040697;28;20037;-83
2022/11/08 05:08:38;;;;;;;9.63;5.63;;;1.80;99.90;;;;;;5048596;28;20092;-83
2022/11/08 05:11:06;;;;;;;3.03;2.05;;;1.90;99.90;;;;;;5039663;28;20345;-84
2022/11/08 05:13:33;;;;;;;2.17;2.08;;;1.70;99.90;;;;;;5039220;28;20033;-83
2022/11/08 05:16:00;;;;;;;2.10;2.00;;;1.70;99.90;;;;;;5043846;28;20127;-83
2022/11/08 05:18:27;;;;;;;2.10;1.95;;;1.80;99.90;;;;;;5042673;28;20447;-83
2022/11/08 05:23:43;;;;;;;2.15;1.95;;;1.70;99.90;;;;;;5027141;28;20048;-83
2022/11/08 05:26:09;;;;;;;3.63;2.20;;;1.60;99.90;;;;;;5042110;28;20033;-83
2022/11/08 05:28:35;;;;;;;2.10;1.90;;;1.60;99.90;;;;;;5039919;28;20033;-83
2022/11/08 05:31:01;;;;;;;1.80;1.70;;;1.70;99.90;;;;;;5037464;28;20057;-83
2022/11/08 05:33:26;;;;;;;2.10;1.90;;;1.60;99.90;;;;;;5038737;28;20033;-83
2022/11/08 05:35:52;;;;;;;3.28;2.10;;;1.70;99.90;;;;;;5041587;28;20595;-83
2022/11/08 05:38:18;;;;;;;2.90;2.00;;;1.60;99.90;;;;;;5039086;28;20048;-83
2022/11/08 05:40:44;;;;;;;2.35;2.08;;;1.50;99.90;;;;;;5046862;28;20048;-83
2022/11/08 05:43:10;;;;;;;3.83;2.15;;;1.60;99.90;;;;;;5047994;28;20057;-83
2022/11/08 05:45:35;;;;;;;2.30;1.90;;;1.60;99.90;;;;;;5037879;28;20050;-83
2022/11/08 05:48:05;;;;;;;1.90;1.80;;;1.60;99.90;;;;;;5037536;28;20385;-83
2022/11/08 05:50:32;;;;;;;1.90;1.80;;;1.70;99.90;;;;;;5035290;28;20032;-83
2022/11/08 05:52:57;;;;;;;1.80;1.70;;;1.70;99.90;;;;;;5038247;28;20151;-83
2022/11/08 05:55:23;;;;;;;1.90;1.80;;;1.70;99.90;;;;;;5040305;28;20033;-83
2022/11/08 05:57:49;;;;;;;1.75;1.65;;;1.70;99.90;;;;;;5039904;28;20080;-83
2022/11/08 06:00:15;;;;;;;4.03;1.98;;;1.30;99.90;;;;;;5043650;28;20033;-83
2022/11/08 06:02:40;;;;;;;6.47;2.30;;;1.30;99.90;;;;;;5040894;28;20041;-83
2022/11/08 06:05:07;;;;;;;2.17;1.73;;;1.40;99.90;;;;;;5044936;28;20055;-83
2022/11/08 06:07:33;;;;;;;2.25;1.95;;;1.40;99.90;;;;;;5041583;28;20052;-83
2022/11/08 06:09:58;;;;;;;2.00;1.88;;;1.50;99.90;;;;;;5042607;28;20025;-83
2022/11/08 06:12:24;;;;;;;1.90;1.70;;;1.50;99.90;;;;;;5038296;28;20034;-83
2022/11/08 06:14:50;;;;;;;1.95;1.83;;;1.50;99.90;;;;;;5043832;28;20037;-84
2022/11/08 06:17:15;;;;;;;5.07;3.45;;;1.50;99.90;;;;;;5039788;28;20040;-84
2022/11/08 06:19:41;;;;;;;5.70;4.00;;;1.50;99.90;;;;;;5040767;28;20033;-83
2022/11/08 06:22:07;;;;;;;8.13;3.58;;;1.60;99.90;;;;;;5039563;28;20026;-83
2022/11/08 06:24:32;;;;;;;5.60;3.03;;;1.50;99.90;;;;;;5034063;28;20045;-82
2022/11/08 06:26:58;;;;;;;3.55;2.15;;;1.50;99.90;;;;;;5038046;28;20492;-82
2022/11/08 06:29:23;;;;;;;3.15;2.38;;;1.60;99.90;;;;;;5043457;28;20408;-83
2022/11/08 06:31:49;;;;;;;5.32;2.80;;;1.60;99.90;;;;;;5034475;28;20041;-83
2022/11/08 06:34:15;;;;;;;8.32;3.05;;;1.50;99.90;;;;;;5040714;28;20017;-83
2022/11/08 06:36:40;;;;;;;6.88;3.67;;;1.50;99.90;;;;;;5042958;28;20101;-84
2022/11/08 06:39:06;;;;;;;2.63;2.08;;;1.50;99.90;;;;;;5043076;28;20370;-82
2022/11/08 06:41:32;;;;;;;2.30;2.00;;;1.50;99.90;;;;;;5041065;28;20085;-83
2022/11/08 06:43:58;;;;;;;2.60;1.75;;;1.50;99.90;;;;;;5042077;28;20045;-83
2022/11/08 06:46:24;;;;;;;3.80;2.50;;;1.50;99.90;;;;;;5040082;28;20073;-83
2022/11/08 06:48:50;;;;;;;1.85;1.75;;;1.50;99.90;;;;;;5049680;28;20038;-84
2022/11/08 06:51:15;;;;;;;1.98;1.88;;;1.50;99.90;;;;;;5039927;28;20100;-83
2022/11/08 06:53:41;;;;;;;5.07;2.70;;;1.50;99.90;;;;;;5041427;28;20033;-82
2022/11/08 06:56:07;;;;;;;4.90;3.45;;;1.50;99.90;;;;;;5038370;28;20038;-83
2022/11/08 06:58:32;;;;;;;4.07;3.05;;;1.60;99.90;;;;;;5038802;28;20037;-83
2022/11/08 07:01:03;;;;;;;6.53;4.20;;;1.60;99.90;;;;;;5042067;28;20075;-84
2022/11/08 07:03:29;;;;;;;5.28;4.35;;;1.70;99.90;;;;;;5037515;28;20081;-83
2022/11/08 07:05:54;;;;;;;3.90;2.67;;;1.60;99.90;;;;;;5039605;28;20017;-83
2022/11/08 07:08:20;;;;;;;6.15;3.47;;;1.60;99.90;;;;;;5035243;28;20026;-84
2022/11/08 07:10:45;;;;;;;6.90;3.25;;;1.70;99.90;;;;;;5035260;28;20064;-83
2022/11/08 07:13:13;;;;;;;3.38;2.88;;;1.70;99.90;;;;;;5042536;28;20034;-82
2022/11/08 07:15:40;;;;;;;2.67;2.22;;;1.60;99.90;;;;;;5039110;28;20090;-83
2022/11/08 07:18:11;;;;;;;4.53;2.95;;;1.60;99.90;;;;;;5038064;28;20029;-83
2022/11/08 07:20:37;;;;;;;3.00;2.58;;;1.70;99.90;;;;;;5037824;28;20044;-83
2022/11/08 07:23:03;;;;;;;4.03;3.60;;;1.70;99.90;;;;;;5037868;28;20055;-83
2022/11/08 07:25:30;;;;;;;4.50;2.95;;;1.70;99.90;;;;;;5040689;28;20033;-84
2022/11/08 07:27:57;;;;;;;10.82;3.63;;;1.80;99.90;;;;;;5039187;28;20084;-85
2022/11/08 07:30:22;;;;;;;5.22;3.22;;;1.80;99.90;;;;;;5040115;28;20453;-85
2022/11/08 07:32:48;;;;;;;8.63;4.40;;;1.80;99.90;;;;;;5039974;28;20029;-85
2022/11/08 07:35:14;;;;;;;6.43;4.50;;;1.90;99.90;;;;;;5038586;28;20017;-84
2022/11/08 07:37:39;;;;;;;5.88;3.67;;;2.00;99.90;;;;;;5047252;28;20048;-84
2022/11/08 07:40:06;;;;;;;4.35;3.38;;;2.10;99.90;;;;;;5038516;28;20105;-84
2022/11/08 07:42:36;;;;;;;6.40;3.97;;;2.10;99.90;;;;;;5040974;28;20096;-83
2022/11/08 07:45:02;;;;;;;4.25;3.28;;;2.10;99.90;;;;;;5039420;28;20085;-83
2022/11/08 07:47:28;;;;;;;4.70;3.38;;;2.20;99.90;;;;;;5038983;28;20067;-84
2022/11/08 07:49:53;;;;;;;4.38;3.38;;;2.20;99.90;;;;;;5033635;28;20038;-84
2022/11/08 07:52:19;;;;;;;6.00;3.33;;;2.20;99.90;;;;;;5040154;28;20473;-83
2022/11/08 07:54:44;;;;;;;2.78;2.47;;;2.30;99.90;;;;;;5040765;28;20056;-83
2022/11/08 07:57:10;;;;;;;3.58;2.50;;;2.30;99.90;;;;;;5038440;28;20041;-83
2022/11/08 07:59:36;;;;;;;2.72;2.17;;;2.40;99.90;;;;;;5041447;28;20041;-83
2022/11/08 08:02:02;;;;;;;2.45;2.15;;;2.50;99.90;;;;;;5038138;28;20046;-83
2022/11/08 08:04:28;;;;;;;3.53;2.60;;;2.50;99.90;;;;;;5041380;28;20041;-82
2022/11/08 08:06:54;;;;;;;9.60;2.95;;;2.60;99.90;;;;;;5040652;28;20014;-83
2022/11/08 08:09:20;;;;;;;3.55;2.67;;;2.60;99.90;;;;;;5036661;28;20065;-83
2022/11/08 08:11:46;;;;;;;5.22;2.83;;;2.70;99.90;;;;;;5039891;28;20026;-83
2022/11/08 08:14:11;;;;;;;5.25;2.95;;;2.80;99.90;;;;;;5038969;28;20048;-84
2022/11/08 08:16:37;;;;;;;4.60;3.75;;;2.90;99.90;;;;;;5039789;28;20038;-83
2022/11/08 08:19:03;;;;;;;4.82;3.15;;;3.00;99.90;;;;;;5040005;28;20065;-82
2022/11/08 08:21:29;;;;;;;7.72;3.63;;;3.10;99.90;;;;;;5043038;28;20029;-82
2022/11/08 08:23:54;;;;;;;6.50;3.60;;;3.20;99.90;;;;;;5041049;28;20030;-82
2022/11/08 08:26:20;;;;;;;3.58;3.28;;;3.30;99.90;;;;;;5045990;28;20061;-82
2022/11/08 08:28:45;;;;;;;5.63;3.70;;;3.50;99.90;;;;;;5044386;28;20409;-82
2022/11/08 08:31:11;;;;;;;7.45;3.33;;;3.60;99.90;;;;;;5037585;28;20189;-82
2022/11/08 08:33:37;;;;;;;5.22;3.83;;;3.80;99.90;;;;;;5045380;28;20048;-82
2022/11/08 08:36:03;;;;;;;5.93;4.30;;;3.90;99.90;;;;;;5045999;28;20540;-82
2022/11/08 08:38:32;;;;;;;6.07;3.90;;;4.00;99.90;;;;;;5042512;28;20044;-82
2022/11/08 08:40:58;;;;;;;4.50;3.58;;;4.10;99.90;;;;;;5043803;28;20044;-82
2022/11/08 08:43:26;;;;;;;6.22;4.63;;;4.10;99.90;;;;;;5041322;28;20025;-82
2022/11/08 08:45:53;;;;;;;6.35;4.10;;;4.20;99.90;;;;;;5043639;28;20103;-82
2022/11/08 08:48:19;;;;;;;5.20;3.85;;;4.30;99.90;;;;;;5041302;28;20029;-82
2022/11/08 08:50:44;;;;;;;7.03;4.30;;;4.50;99.90;;;;;;5046260;28;20179;-83
2022/11/08 08:53:10;;;;;;;5.30;3.42;;;4.80;99.90;;;;;;5044746;28;20037;-83
2022/11/08 08:55:41;;;;;;;4.45;3.40;;;4.90;99.90;;;;;;5045190;28;20025;-82
2022/11/08 08:58:08;;;;;;;4.55;3.20;;;5.10;99.90;;;;;;5041173;28;20072;-82
2022/11/08 09:00:34;;;;;;;3.45;2.85;;;5.30;99.90;;;;;;5042001;28;20033;-81
2022/11/08 09:03:04;;;;;;;4.65;2.88;;;5.50;99.90;;;;;;5042292;28;20042;-82
2022/11/08 09:05:30;;;;;;;5.80;3.10;;;5.80;99.90;;;;;;5040516;28;20014;-83
2022/11/08 09:07:56;;;;;;;4.63;2.92;;;5.90;99.90;;;;;;5048386;28;20025;-83
2022/11/08 09:10:22;;;;;;;7.68;3.20;;;6.10;99.90;;;;;;5045922;28;20100;-83
2022/11/08 09:12:48;;;;;;;4.13;2.67;;;6.20;99.90;;;;;;5046242;28;20029;-82
2022/11/08 09:15:15;;;;;;;4.13;2.80;;;6.20;99.90;;;;;;5045233;28;20022;-82
2022/11/08 09:17:41;;;;;;;2.63;2.08;;;6.30;99.90;;;;;;5045234;28;20128;-82
2022/11/08 09:20:08;;;;;;;2.50;2.33;;;6.40;99.90;;;;;;5043272;28;20807;-82
2022/11/08 09:22:34;;;;;;;4.13;2.15;;;6.50;99.90;;;;;;5044498;28;20029;-82
2022/11/08 09:25:00;;;;;;;2.67;2.45;;;6.40;99.90;;;;;;5044306;28;20044;-82
2022/11/08 09:27:28;;;;;;;2.70;2.40;;;6.50;99.90;;;;;;5042923;28;20394;-82
2022/11/08 09:29:54;;;;;;;2.50;2.30;;;6.50;99.90;;;;;;5051221;28;20497;-83
2022/11/08 09:32:19;;;;;;;2.95;2.30;;;6.60;99.90;;;;;;5042673;28;20060;-82
2022/11/08 09:34:45;;;;;;;3.35;3.05;;;6.70;99.90;;;;;;5043157;28;20049;-82
2022/11/08 09:37:10;;;;;;;3.55;2.30;;;6.80;99.90;;;;;;5039096;28;20079;-83
2022/11/08 09:39:36;;;;;;;4.15;2.40;;;6.80;99.90;;;;;;5046730;28;20500;-82
2022/11/08 09:42:25;;;;;;;3.22;2.50;;;7.00;99.90;;;;;;5043322;28;20065;-82
2022/11/08 09:45:15;;;;;;;3.40;3.10;;;7.00;99.90;;;;;;5023569;28;20045;-82
2022/11/08 09:47:43;;;;;;;5.50;3.35;;;7.10;99.90;;;;;;5040639;28;20033;-82
2022/11/08 09:50:21;;;;;;;;;;;7.10;99.90;;;;;;5041048;28;20033;-82
2022/11/08 09:53:25;;;;;;;5.50;3.58;;;7.20;99.90;;;;;;5046422;28;19908;-82
2022/11/08 09:56:03;;;;;;;2.95;2.65;;;7.20;99.90;;;;;;5037081;28;20082;-82
2022/11/08 09:58:53;;;;;;;5.13;3.63;;;7.20;99.90;;;;;;5038223;28;20103;-82
2022/11/08 10:01:20;;;;;;;4.18;3.00;;;7.20;99.90;;;;;;5040856;28;20037;-81
2022/11/08 10:03:52;;;;;;;4.68;3.05;;;7.20;99.90;;;;;;5041083;28;20109;-82
2022/11/08 10:06:56;;;;;;;5.85;3.90;;;7.30;99.90;;;;;;5041221;28;20029;-82
2022/11/08 10:09:51;;;;;;;6.55;3.85;;;7.40;99.90;;;;;;5046305;28;20072;-82
2022/11/08 10:12:29;;;;;;;5.90;3.85;;;7.50;99.90;;;;;;5038469;28;20048;-80
2022/11/08 10:14:54;;;;;;;5.07;3.53;;;7.80;99.90;;;;;;5039489;28;20032;-81
2022/11/08 10:17:35;;;;;;;4.70;3.15;;;8.00;99.90;;;;;;5039582;28;20045;-80
2022/11/08 10:20:07;;;;;;;3.90;3.08;;;8.20;99.90;;;;;;5071379;28;20037;-81
2022/11/08 10:23:11;;;;;;;3.35;2.88;;;8.30;99.90;;;;;;5055944;28;20047;-81
2022/11/08 10:25:43;;;;;;;2.75;2.55;;;8.50;99.90;;;;;;5031608;28;20049;-81
2022/11/08 10:28:14;;;;;;;2.88;2.60;;;8.60;99.90;;;;;;5039114;28;20105;-81
2022/11/08 10:30:41;;;;;;;4.22;2.80;;;8.70;99.90;;;;;;5037136;28;20105;-80
2022/11/08 10:33:19;;;;;;;3.97;3.17;;;8.70;99.90;;;;;;5042887;28;20025;-81
2022/11/08 10:35:53;;;;;;;4.97;2.80;;;8.90;99.90;;;;;;5039855;28;20033;-81
2022/11/08 10:38:23;;;;;;;4.20;2.88;;;9.00;99.90;;;;;;5065656;28;20025;-81
2022/11/08 10:41:07;;;;;;;3.70;3.45;;;9.20;99.90;;;;;;5038299;28;20029;-81
2022/11/08 10:43:47;;;;;;;3.30;2.40;;;9.20;99.90;;;;;;5038401;28;20174;-81
2022/11/08 10:46:44;;;;;;;3.55;2.10;;;9.20;99.90;;;;;;5034846;28;20049;-81
2022/11/08 10:49:11;;;;;;;4.30;2.42;;;9.20;99.90;;;;;;5036854;28;20029;-80
2022/11/08 10:51:37;;;;;;;4.40;2.30;;;9.10;99.90;;;;;;5039872;28;20665;-81
2022/11/08 10:54:03;;;;;;;4.90;2.78;;;9.20;99.90;;;;;;5041823;28;20085;-83
2022/11/08 10:56:28;;;;;;;3.95;3.42;;;9.20;99.90;;;;;;5035307;28;20392;-81
2022/11/08 10:58:54;;;;;;;3.70;2.78;;;9.30;99.90;;;;;;5039221;28;20013;-81
2022/11/08 11:01:25;;;;;;;1.95;1.83;;;9.30;99.90;;;;;;5040310;28;20037;-81
2022/11/08 11:03:52;;;;;;;3.47;2.70;;;9.40;99.90;;;;;;5043897;28;20449;-81
2022/11/08 11:06:24;;;;;;;2.78;2.20;;;9.50;99.90;;;;;;5038600;28;20037;-81
2022/11/08 11:08:55;;;;;;;2.10;2.00;;;9.60;99.90;;;;;;5042529;28;20068;-81
2022/11/08 11:11:30;;;;;;;2.47;1.98;;;9.80;99.90;;;;;;5040419;28;20037;-81
2022/11/08 11:14:08;;;;;;;3.00;2.28;;;9.90;99.90;;;;;;5040451;28;20042;-81
2022/11/08 11:16:35;;;;;;;;;;;10.00;99.90;;;;;;5037736;28;20094;-82
2022/11/08 11:19:03;;;;;;;2.30;2.10;;;10.00;99.90;;;;;;5036636;28;19913;-81
2022/11/08 11:21:38;;;;;;;2.42;1.73;;;10.10;99.90;;;;;;5040289;28;20031;-81
2022/11/08 11:24:16;;;;;;;4.22;2.40;;;10.30;99.90;;;;;;5047044;28;20045;-81
2022/11/08 11:26:56;;;;;;;2.08;1.77;;;10.30;99.90;;;;;;5041955;28;20037;-81
2022/11/08 11:29:31;;;;;;;2.88;2.40;;;10.40;99.90;;;;;;5040674;28;20060;-81
2022/11/08 11:31:57;;;;;;;2.28;1.95;;;10.50;99.90;;;;;;5042855;28;20080;-81
2022/11/08 11:34:31;;;;;;;3.88;2.53;;;10.50;99.90;;;;;;5043415;28;20057;-81
2022/11/08 11:37:43;;;;;;;3.47;2.20;;;10.40;99.90;;;;;;5040432;28;20033;-81
2022/11/08 11:40:28;;;;;;;4.13;2.60;;;10.30;99.90;;;;;;5023706;28;20050;-81
2022/11/08 11:43:23;;;;;;;3.13;2.72;;;10.30;99.90;;;;;;5041784;28;20049;-81
2022/11/08 11:45:54;;;;;;;2.38;2.17;;;10.30;99.90;;;;;;5043201;28;20076;-81
2022/11/08 11:48:27;;;;;;;1.60;1.50;;;10.30;99.90;;;;;;5039670;28;20092;-81
2022/11/08 11:50:53;;;;;;;4.03;2.35;;;10.30;99.90;;;;;;5037234;28;20041;-81
2022/11/08 11:53:21;;;;;;;2.90;2.60;;;10.30;99.90;;;;;;5038924;28;20072;-82
2022/11/08 11:56:18;;;;;;;2.80;2.40;;;10.30;99.90;;;;;;5039096;28;20059;-81
2022/11/08 11:59:04;;;;;;;2.78;2.50;;;10.30;99.90;;;;;;5041838;28;20033;-81
2022/11/08 12:02:06;;;;;;;2.22;2.05;;;10.40;99.90;;;;;;5044070;28;20500;-81
2022/11/08 12:05:05;;;;;;;2.03;1.75;;;10.40;99.90;;;;;;5043609;28;20040;-81
2022/11/08 12:07:34;;;;;;;2.22;1.98;;;10.40;99.90;;;;;;5042607;28;20080;-81
2022/11/08 12:10:13;;;;;;;2.70;2.33;;;10.40;99.90;;;;;;5044797;28;20033;-81
2022/11/08 12:12:53;;;;;;;3.63;2.45;;;10.50;99.90;;;;;;5044803;28;20109;-81
2022/11/08 12:15:31;;;;;;;2.67;2.08;;;10.60;99.90;;;;;;5045720;28;20369;-81
2022/11/08 12:18:00;;;;;;;3.55;1.88;;;10.60;99.90;;;;;;5042969;28;20033;-81
2022/11/08 12:20:45;;;;;;;2.47;2.28;;;10.60;99.90;;;;;;5046480;28;20031;-81
2022/11/08 12:23:16;;;;;;;5.07;2.45;;;10.60;99.90;;;;;;5042008;28;20140;-82
2022/11/08 12:26:05;;;;;;;3.35;2.63;;;10.60;99.90;;;;;;5047154;28;20025;-81
2022/11/08 12:28:58;;;;;;;2.88;2.40;;;10.70;99.90;;;;;;5039691;28;20110;-81
2022/11/08 12:31:49;;;;;;;3.28;2.40;;;10.80;99.90;;;;;;5035542;28;20087;-81
2022/11/08 12:34:36;;;;;;;2.83;2.20;;;11.00;99.90;;;;;;5031136;28;20046;-81
2022/11/08 12:37:32;;;;;;;4.25;2.40;;;11.00;99.90;;;;;;5047508;28;20040;-80
2022/11/08 12:40:12;;;;;;;3.15;2.35;;;11.10;99.90;;;;;;5044740;28;20036;-80
2022/11/08 12:42:57;;;;;;;3.70;2.67;;;11.20;99.90;;;;;;5047375;28;20061;-82
2022/11/08 12:45:29;;;;;;;4.13;2.78;;;11.40;99.90;;;;;;5040318;28;20053;-81
2022/11/08 12:48:22;;;;;;;2.85;2.60;;;11.30;99.90;;;;;;5047295;28;20080;-80
2022/11/08 12:50:57;;;;;;;5.60;2.60;;;11.20;99.90;;;;;;5049156;28;20033;-81
2022/11/08 12:53:34;;;;;;;3.33;2.42;;;11.20;99.90;;;;;;5041175;28;20526;-82
2022/11/08 12:56:02;;;;;;;2.55;2.15;;;11.30;99.90;;;;;;5042048;28;20060;-82
2022/11/08 12:58:33;;;;;;;3.92;2.63;;;11.40;99.90;;;;;;5044920;28;20470;-82
2022/11/08 13:01:05;;;;;;;3.42;2.40;;;11.60;99.90;;;;;;5036997;28;20540;-83
2022/11/08 13:03:48;;;;;;;2.75;2.45;;;11.50;99.90;;;;;;5043967;28;20025;-83
2022/11/08 13:06:17;;;;;;;3.10;2.40;;;11.50;99.90;;;;;;5037057;28;20029;-83
2022/11/08 13:08:51;;;;;;;2.67;2.47;;;11.50;99.90;;;;;;5044580;28;20402;-83
2022/11/08 13:11:28;;;;;;;3.65;2.30;;;11.50;99.90;;;;;;5040048;28;20030;-82
2022/11/08 13:13:57;;;;;;;4.75;2.22;;;11.50;99.90;;;;;;5041616;28;20097;-83
2022/11/08 13:16:28;;;;;;;4.97;2.63;;;11.50;99.90;;;;;;5040748;28;20045;-82
2022/11/08 13:19:00;;;;;;;3.22;2.40;;;11.50;99.90;;;;;;5040630;28;20041;-83
2022/11/08 13:21:33;;;;;;;2.92;2.15;;;11.50;99.90;;;;;;5043529;28;20033;-82
2022/11/08 13:24:01;;;;;;;3.00;2.70;;;11.70;99.90;;;;;;5041914;28;20057;-83
2022/11/08 13:26:29;;;;;;;3.53;2.10;;;12.00;99.90;;;;;;5037041;28;20042;-83
2022/11/08 13:29:14;;;;;;;3.35;2.20;;;12.20;99.90;;;;;;5040473;28;20060;-83